In Rescue
 
Open Full Screen Window  High Contrast Mode
Wind Gusting 63 knots
29
July 11, 2020 12:33 PM CDT
Present Weather: Thunderstorms with Rain
Weather Information
Wind Direction
  320 °
Wind Speed
  29 kt (33 mph)
Wind Gust
  63 kt (72 mph)
Altimeter
29.99 in
Visibility
5 SM
Temperature
24° C
75° F
Dewpoint
19° C
66° F
Humidity
74%
1hr Rain Fall
00.05 in.
24hr Rain Fall
00.06 in.
Sky Condition
Missing
MVFR

METAR KBDH 111733Z AUTO 32029G63KT 5SM TSRA 24/19 A2999 RMK AO2 P0005 LTG DSNT ALQDS

FAA Disclaimer: The data displayed is for advisory purposes only and is not to be used for flight planning or operations.
Missing Cloud Data